Latest Weather Observations for Orbost

IDV60801

Issued at 4:42 pm EST Sunday 18 August 2019 (issued every 10 minutes, with the page automatically refreshed every 10 minutes)

About weather observations | Map of weather stations | Latest weather observations for VIC | Other Formats
Station Details ID: 084145 Name: ORBOST Lat: -37.69 Lon: 148.47 Height: 62.65 m
Data from the previous 72 hours. | See also: Recent months at Orbost
Date/Time
EST
Temp
°C
App
Temp
°C
Dew
Point
°C
Rel
Hum
%
Delta-T
°C
Wind Press
QNH
hPa
Press
MSL
hPa
Rain since
9am
mm
Dir  Spd
km/h
Gust
km/h
Spd
kts
Gust
kts
18/04:30pm 21.8 18.4 2.0 27 9.3 NNE 9 17 5 9 1002.6 1002.7 0.0
18/04:00pm 21.8 17.6 3.9 31 8.7 N 15 26 8 14 1003.1 1003.2 0.0
18/03:30pm 22.2 16.1 2.8 28 9.2 N 24 35 13 19 1003.7 1003.8 0.0
18/03:00pm 22.5 16.5 3.6 29 9.2 NW 24 43 13 23 1004.4 1004.5 0.0
18/02:30pm 22.8 15.3 3.4 28 9.4 NNW 32 46 17 25 1004.9 1005.0 0.0
18/02:15pm 23.3 17.0 3.8 28 9.5 NNW 26 46 14 25 1004.8 1004.9 0.0
18/02:00pm 23.4 18.9 6.2 33 8.8 N 19 30 10 16 1005.0 1005.1 0.0
18/01:30pm 23.3 17.2 6.6 34 8.6 N 28 39 15 21 1005.5 1005.6 0.0
18/01:00pm 20.0 17.2 7.1 43 6.6 N 11 22 6 12 1006.2 1006.3 0.0
18/12:30pm 18.3 15.8 8.3 52 5.2 E 11 15 6 8 1007.1 1007.2 0.0
18/12:00pm 17.7 16.1 8.8 56 4.6 E 7 13 4 7 1008.0 1008.0 0.0
18/11:30am 17.3 15.3 7.1 51 5.1 E 7 13 4 7 1008.9 1008.9 0.0
18/11:00am 16.9 14.3 6.1 49 5.3 E 9 13 5 7 1009.8 1009.8 0.0
18/10:30am 16.2 14.0 6.3 52 4.8 NNE 7 17 4 9 1010.5 1010.5 0.0
18/10:22am 15.7 13.3 7.0 56 4.3 NNE 9 17 5 9 1010.7 1010.7 0.0
18/10:00am 10.7 10.1 9.1 90 0.8 NE 2 4 1 2 1011.1 1011.1 0.0
18/09:30am 10.0 8.5 6.9 81 1.5 ESE 4 6 2 3 1011.6 1011.6 0.0
18/09:00am 8.8 8.4 8.2 96 0.3 CALM 0 0 0 0 1012.1 1012.1 0.4
18/08:30am 7.6 6.6 7.5 99 0.0 E 2 6 1 3 1012.4 1012.4 0.4
18/08:00am 6.6 5.8 6.5 99 0.0 CALM 0 4 0 2 1012.6 1012.6 0.4
18/07:30am 6.1 5.2 6.0 99 0.0 CALM 0 2 0 1 1012.7 1012.7 0.4
18/07:00am 5.4 4.3 5.3 99 0.0 CALM 0 2 0 1 1012.6 1012.6 0.4
18/06:30am 5.1 3.9 4.8 98 0.1 CALM 0 0 0 0 1012.7 1012.7 0.4
18/06:00am 4.6 3.4 4.5 99 0.0 CALM 0 2 0 1 1013.0 1013.0 0.4
18/05:30am 4.1 2.4 3.8 98 0.1 SE 2 4 1 2 1013.2 1013.2 0.4
18/05:00am 5.5 4.5 5.4 99 0.0 CALM 0 2 0 1 1013.3 1013.3 0.4
18/04:30am 5.1 3.6 5.0 99 0.0 N 2 4 1 2 1013.6 1013.6 0.2
18/04:00am 4.8 2.9 4.7 99 0.0 NNW 4 4 2 2 1014.0 1014.0 0.2
18/03:30am 3.7 1.4 2.8 94 0.4 W 4 7 2 4 1014.4 1014.5 0.2
18/03:00am 6.8 5.3 5.1 89 0.7 N 2 4 1 2 1014.6 1014.7 0.2
18/02:30am 8.3 6.9 7.1 92 0.6 N 4 6 2 3 1014.9 1015.0 0.2
18/02:00am 6.3 5.4 6.2 99 0.0 CALM 0 2 0 1 1015.5 1015.6 0.2
18/01:30am 6.4 4.8 6.3 99 0.0 NNE 4 9 2 5 1015.9 1016.0 0.2
18/01:00am 6.8 5.7 6.7 99 0.0 NW 2 4 1 2 1016.1 1016.2 0.2
18/12:30am 5.6 3.8 5.5 99 0.0 NW 4 4 2 2 1016.5 1016.6 0.2
18/12:00am 6.2 4.9 6.1 99 0.0 WNW 2 4 1 2 1016.4 1016.5 0.2
 
Date/Time
EST
Temp
°C
App
Temp
°C
Dew
Point
°C
Rel
Hum
%
Delta-T
°C
Wind Press
QNH
hPa
Press
MSL
hPa
Rain since
9am
mm
Dir  Spd
km/h
Gust
km/h
Spd
kts
Gust
kts
17/11:30pm 5.5 4.1 5.4 99 0.0 WNW 2 6 1 3 1016.6 1016.7 0.2
17/11:00pm 5.7 3.9 5.3 97 0.2 W 4 7 2 4 1016.6 1016.7 0.0
17/10:30pm 8.1 6.9 8.0 99 0.0 NE 4 6 2 3 1017.1 1017.2 0.0
17/10:00pm 8.0 7.5 7.9 99 0.0 CALM 0 0 0 0 1017.8 1017.9 0.0
17/09:30pm 8.1 7.6 8.0 99 0.0 CALM 0 0 0 0 1018.0 1018.1 0.0
17/09:00pm 8.7 8.0 8.6 99 0.0 E 2 4 1 2 1018.1 1018.2 0.0
17/08:30pm 9.0 7.4 8.9 99 0.0 E 7 13 4 7 1018.2 1018.3 0.0
17/08:00pm 8.7 7.2 8.6 99 0.0 E 6 9 3 5 1018.6 1018.7 0.0
17/07:30pm 8.2 7.0 8.1 99 0.0 E 4 6 2 3 1019.0 1019.1 0.0
17/07:00pm 8.6 7.5 8.5 99 0.0 E 4 6 2 3 1019.0 1019.1 0.0
17/06:30pm 8.8 7.7 8.4 97 0.2 E 4 6 2 3 1019.1 1019.2 0.0
17/06:00pm 9.9 9.0 9.3 96 0.3 ESE 4 6 2 3 1018.9 1019.0 0.0
17/05:30pm 10.8 10.0 9.7 93 0.6 SE 4 6 2 3 1018.8 1018.9 0.0
17/05:00pm 12.1 11.1 10.2 88 1.0 SE 6 9 3 5 1018.6 1018.7 0.0
17/04:30pm 13.0 11.9 9.8 81 1.6 SSE 6 7 3 4 1018.7 1018.8 0.0
17/04:00pm 13.8 13.4 9.6 76 2.2 SW 2 6 1 3 1019.0 1019.1 0.0
17/03:30pm 13.6 13.3 10.2 80 1.8 W 2 4 1 2 1019.4 1019.5 0.0
17/03:00pm 11.7 10.7 10.3 91 0.7 NW 6 9 3 5 1019.5 1019.6 0.0
17/02:30pm 12.3 11.6 10.2 87 1.1 NW 4 7 2 4 1019.5 1019.6 0.0
17/02:00pm 12.1 11.4 10.2 88 1.0 NW 4 6 2 3 1019.8 1019.9 0.0
17/01:30pm 11.5 11.5 9.9 90 0.8 CALM 0 4 0 2 1020.2 1020.3 0.0
17/01:00pm 11.2 10.6 10.3 94 0.5 NW 4 6 2 3 1020.6 1020.7 0.0
17/12:30pm 11.0 10.3 10.1 94 0.5 W 4 6 2 3 1020.9 1021.0 0.0
17/12:00pm 10.9 9.4 9.3 90 0.8 WNW 7 9 4 5 1021.2 1021.3 0.0
17/11:30am 10.9 9.7 9.7 92 0.6 NW 6 9 3 5 1021.4 1021.5 0.0
17/11:00am 10.5 9.0 9.1 91 0.7 WNW 7 11 4 6 1021.6 1021.7 0.0
17/10:30am 10.1 8.6 9.0 93 0.5 NW 7 11 4 6 1021.6 1021.7 0.0
17/10:00am 9.7 7.8 8.9 95 0.4 WNW 9 13 5 7 1021.5 1021.6 0.0
17/09:30am 9.3 7.3 8.7 96 0.3 NW 9 13 5 7 1021.6 1021.7 0.0
17/09:00am 8.8 6.8 8.7 99 0.0 WNW 9 15 5 8 1021.5 1021.6 1.6
17/08:30am 8.7 6.7 8.6 99 0.0 NW 9 13 5 7 1021.3 1021.4 1.6
17/08:00am 8.3 6.2 8.2 99 0.0 WNW 9 13 5 7 1021.2 1021.3 1.6
17/07:30am 8.2 6.1 8.1 99 0.0 NW 9 17 5 9 1021.0 1021.1 1.2
17/07:00am 8.1 5.9 7.8 98 0.1 NW 9 13 5 7 1020.5 1020.6 1.2
17/06:30am 8.2 6.3 7.6 96 0.3 WNW 7 15 4 8 1020.0 1020.1 0.8
17/06:00am 8.4 5.7 7.3 93 0.5 WNW 11 22 6 12 1019.5 1019.6 0.8
17/05:30am 8.3 5.6 7.4 94 0.4 WNW 11 15 6 8 1019.2 1019.3 0.8
17/05:00am 8.3 5.7 7.7 96 0.3 W 11 19 6 10 1019.1 1019.2 0.8
17/04:30am 8.2 4.9 7.9 98 0.1 WNW 15 22 8 12 1018.8 1018.9 0.8
17/04:00am 8.3 4.9 7.7 96 0.3 WNW 15 26 8 14 1018.4 1018.5 0.6
17/03:30am 8.4 5.0 7.6 95 0.4 WNW 15 22 8 12 1018.2 1018.3 0.4
17/03:00am 8.6 4.8 7.4 92 0.6 WNW 17 28 9 15 1017.9 1018.0 0.2
17/02:30am 8.8 4.6 7.3 90 0.7 WNW 19 32 10 17 1018.0 1018.1 0.2
17/02:00am 9.0 4.8 7.3 89 0.8 WNW 19 30 10 16 1017.9 1018.0 0.2
17/01:30am 9.1 4.8 7.2 88 0.9 WNW 19 37 10 20 1017.7 1017.8 0.2
17/01:00am 9.2 5.3 7.2 87 0.9 WNW 17 28 9 15 1017.3 1017.4 0.2
17/12:30am 9.5 6.0 7.1 85 1.1 WNW 15 26 8 14 1017.2 1017.3 0.2
17/12:00am 9.7 6.1 6.8 82 1.4 WNW 15 28 8 15 1017.1 1017.2 0.2
 
Date/Time
EST
Temp
°C
App
Temp
°C
Dew
Point
°C
Rel
Hum
%
Delta-T
°C
Wind Press
QNH
hPa
Press
MSL
hPa
Rain since
9am
mm
Dir  Spd
km/h
Gust
km/h
Spd
kts
Gust
kts
16/11:30pm 10.2 6.2 6.5 78 1.7 WNW 17 26 9 14 1017.1 1017.2 0.0
16/11:00pm 10.1 6.8 6.4 78 1.7 WNW 13 22 7 12 1017.0 1017.1 0.0
16/10:30pm 10.4 7.1 6.5 77 1.8 WNW 13 22 7 12 1017.0 1017.1 0.0
16/10:00pm 10.5 7.3 6.8 78 1.7 W 13 22 7 12 1016.9 1017.0 0.0
16/09:30pm 10.4 8.4 7.1 80 1.6 W 7 11 4 6 1016.7 1016.8 0.0
16/09:00pm 10.7 8.8 7.6 81 1.5 NW 7 13 4 7 1016.3 1016.4 0.0
16/08:30pm 10.4 8.8 7.8 84 1.3 NNW 6 9 3 5 1016.0 1016.1 0.0
16/08:00pm 10.6 8.7 7.5 81 1.5 NW 7 13 4 7 1015.9 1016.0 0.0
16/07:30pm 11.1 8.5 7.8 80 1.6 NW 11 19 6 10 1015.5 1015.6 0.0
16/07:00pm 11.0 8.1 8.1 82 1.4 NW 13 20 7 11 1015.2 1015.3 0.0
16/06:30pm 11.9 7.2 7.8 76 2.0 W 22 33 12 18 1015.1 1015.2 0.0
16/06:05pm 13.3 7.2 6.4 63 3.3 W 28 48 15 26 1014.1 1014.2 0.0
16/06:00pm 14.7 9.0 5.0 52 4.6 W 24 39 13 21 1013.8 1013.8 0.0
16/05:30pm 15.6 13.0 4.0 46 5.4 NW 7 9 4 5 1012.5 1012.5 0.0
16/05:00pm 16.5 12.6 3.6 42 6.0 WNW 13 22 7 12 1011.8 1011.8 0.0
16/04:30pm 17.0 11.9 3.0 39 6.4 NW 19 37 10 20 1011.2 1011.2 0.0
16/04:00pm 16.2 11.1 4.3 45 5.6 NNW 20 32 11 17 1011.0 1011.0 0.0
16/03:30pm 15.3 12.5 7.1 58 4.0 NNW 11 30 6 16 1011.7 1011.7 0.0
16/03:00pm 15.0 13.5 8.5 65 3.3 ENE 6 7 3 4 1011.3 1011.3 0.0
16/02:30pm 15.2 13.6 8.2 63 3.5 ESE 6 6 3 3 1011.5 1011.5 0.0
16/02:00pm 15.7 14.8 7.7 59 4.0 WNW 2 6 1 3 1011.5 1011.5 0.0
16/01:30pm 16.4 14.9 4.8 46 5.5 WNW 2 4 1 2 1011.7 1011.7 0.0
16/01:00pm 16.7 14.3 4.1 43 5.9 N 6 9 3 5 1011.9 1011.9 0.0
16/12:30pm 14.2 12.4 5.6 56 4.1 N 4 4 2 2 1012.8 1012.8 0.0
16/12:00pm 14.1 12.2 4.7 53 4.4 NE 4 6 2 3 1013.8 1013.8 0.0
16/11:30am 13.6 11.4 5.5 58 3.8 NE 6 9 3 5 1014.5 1014.6 0.0
16/11:00am 13.7 11.6 4.0 52 4.4 NE 4 7 2 4 1014.9 1015.0 0.0
16/10:30am 14.1 11.5 3.3 48 4.9 NNE 6 9 3 5 1015.3 1015.4 0.0
16/10:00am 13.8 10.7 3.6 50 4.6 NNE 9 15 5 8 1015.2 1015.3 0.0
16/09:30am 14.3 11.5 3.2 47 5.0 NNE 7 11 4 6 1015.2 1015.3 0.0
16/09:00am 14.8 11.5 2.7 44 5.4 N 9 17 5 9 1015.4 1015.5 -
16/08:30am 13.5 10.9 3.3 50 4.6 NNW 6 9 3 5 1016.4 1016.5 -
16/08:00am 13.4 10.2 3.2 50 4.6 N 9 17 5 9 1015.9 1016.0 -
16/07:30am 12.6 9.4 3.3 53 4.1 NNE 9 15 5 8 1015.5 1015.6 -
16/07:00am 10.8 8.2 4.3 64 2.9 NE 7 9 4 5 1015.9 1016.0 -
16/06:30am 11.4 9.9 3.2 57 3.6 CALM 0 4 0 2 1016.0 1016.1 -
16/06:00am 12.5 10.5 2.4 50 4.4 W 2 6 1 3 1015.4 1015.5 -
16/05:30am 11.7 9.7 2.5 53 4.0 NNW 2 7 1 4 1014.6 1014.7 -
16/05:00am 12.7 10.2 1.7 47 4.7 NNE 4 7 2 4 1014.6 1014.7 -
16/04:30am 13.0 9.6 2.0 47 4.8 N 9 17 5 9 1014.5 1014.6 -
16/04:00am 13.1 9.7 1.8 46 4.9 N 9 19 5 10 1014.4 1014.5 -
16/03:30am 12.7 9.0 2.3 49 4.5 N 11 20 6 11 1014.7 1014.8 -
16/03:00am 12.7 9.0 2.3 49 4.5 N 11 15 6 8 1015.1 1015.2 0.0
16/02:30am 13.2 9.5 2.1 47 4.8 N 11 15 6 8 1015.5 1015.6 -
16/02:00am 14.0 9.9 2.3 45 5.2 N 13 24 7 13 1015.9 1016.0 -
16/01:30am 13.4 10.5 1.7 45 5.1 NNE 6 11 3 6 1016.7 1016.8 -
16/01:00am 13.5 10.7 1.8 45 5.1 NNE 6 15 3 8 1017.0 1017.1 -
16/12:30am 12.9 10.4 1.6 46 4.9 NNW 4 11 2 6 1017.4 1017.5 -
16/12:00am 13.0 9.6 1.7 46 4.9 N 9 17 5 9 1017.8 1017.9 -
 
Date/Time
EST
Temp
°C
App
Temp
°C
Dew
Point
°C
Rel
Hum
%
Delta-T
°C
Wind Press
QNH
hPa
Press
MSL
hPa
Rain since
9am
mm
Dir  Spd
km/h
Gust
km/h
Spd
kts
Gust
kts
15/11:30pm 13.6 9.7 1.3 43 5.3 NNW 11 19 6 10 1018.1 1018.2 -
15/11:00pm 13.2 9.7 1.2 44 5.1 NNW 9 13 5 7 1018.4 1018.5 -
15/10:30pm 13.4 9.2 1.4 44 5.2 NNW 13 20 7 11 1018.5 1018.6 -
15/10:00pm 13.4 9.2 1.4 44 5.1 NNW 13 17 7 9 1018.9 1019.0 -
15/09:30pm 12.8 9.8 1.8 47 4.7 NW 7 11 4 6 1019.1 1019.2 -
15/09:00pm 12.9 9.9 1.9 47 4.7 NW 7 9 4 5 1019.2 1019.3 0.0
15/08:30pm 14.0 10.7 2.3 45 5.2 NNW 9 13 5 7 1019.0 1019.1 -
15/08:00pm 12.9 10.0 2.7 50 4.5 NNW 7 13 4 7 1019.3 1019.4 -
15/07:30pm 12.7 9.2 3.4 53 4.2 N 11 17 6 9 1019.3 1019.4 -
15/07:00pm 11.5 8.3 3.3 57 3.6 N 9 11 5 6 1019.5 1019.6 -
15/06:30pm 13.2 9.7 3.3 51 4.4 NNW 11 17 6 9 1019.4 1019.5 -
15/06:00pm 14.1 10.5 2.7 46 5.1 NNW 11 17 6 9 1019.3 1019.4 -
15/05:30pm 14.4 10.8 2.9 46 5.2 NNW 11 19 6 10 1019.0 1019.1 -
15/05:00pm 15.5 11.9 3.0 43 5.7 NW 11 19 6 10 1018.8 1018.9 -

Other formats

Comma delimited format used in spreadsheet applications
http://www.bom.gov.au/fwo/IDV60801/IDV60801.95918.axf

JavaScript Object Notation format (JSON) in row-major order
http://www.bom.gov.au/fwo/IDV60801/IDV60801.95918.json

Data quality

Most of these data are generated automatically and are frequently updated. Quality checks on data are not normally performed. It is possible for incorrect values to appear. Refer to information at About Latest Weather Observations and please check the disclaimer before using these data.